La Grange, TX (78945)

5:13 PM CDT on September 02, 2015 (GMT -0500)
Horton Street | | Change Station
CLOSE
Current Station
Personal Weather Station
Location: La Grange, TX
Elevation: 344 ft
Nearby Weather Stations

Elev 344 ft 29.92 °N, 96.87 °W | Updated 13 seconds ago

Mostly Cloudy
Mostly Cloudy
88.0 °F
Feels Like 93 °F
N
0.0
Wind Variable Wind from SE
Gusts 0.0 mph

Today
High -- | Low -- °F
--% Chance of Precip.
Yesterday
High -- | Low -- °F
Precip. -- in
7:05 AM 7:49 PM
Waning Gibbous, 77% visible
Pressure 29.92 in
Visibility 10.0 miles
Clouds Scattered Clouds 4300 ft
Scattered Clouds 9500 ft
Heat Index 93 °F
Dew Point 70 °F
Humidity 56%
Rainfall 0.00 in
Snow Depth Not available.
UV 2.0 out of 12
Pollen 6.80 out of 12
Air Quality Not available.
Flu Activity Not available.
METAR K3T5 022155Z AUTO 09006KT 10SM SCT043 SCT095 32/22 A2992 RMK AO2 T03150221
Pressure 29.92 in
Visibility 10.0 miles
Clouds Scattered Clouds 4300 ft
Scattered Clouds 9500 ft
Heat Index 93 °F
Dew Point 70 °F
Humidity 56%
Rainfall 0.00 in
Snow Depth Not available.
UV 2.0 out of 12
Pollen 6.80 out of 12
Air Quality Not available.
Flu Activity Not available.
METAR K3T5 022155Z AUTO 09006KT 10SM SCT043 SCT095 32/22 A2992 RMK AO2 T03150221
Nowcast | as of 2:57 PM CDT on September 2, 2015

Isolated to scattered light to moderate showers have developed across the coastal plains of Texas and are pushing west towards the Interstate 35 corridor. Overall rainfall amounts have been light thus far with only a few hundredths of an inch. Some locations may be able to receive up to a tenth under heavier showers. This activity will persist through the afternoon and early evening hours and finally dissipate by 8 to 10 PM.

×

10-Day Weather Forecast

×

Almanac

Astronomy

Sep. 02, 2015 Rise Set
Actual Time
Civil Twilight
Nautical Twilight
Astronomical Twilight
Moon
Length of Visible Light
Length of Day
Tomorrow will be .
, % of the Moon is Illuminated

Today's Extremes

State Highs State Lows

Community

WunderPhotos

Upload Photos

1,851,823 photos uploaded!

WunderBlogs® & News

Nearby

Air Quality

  Air Quality AQ Index Pollutant
Not available.

Snow Depth

Station Depth Elevation

Earthquake Activity

City Distance Mag. Time & Date
Minimum magnitude displayed is 2.5.

Coastal Water Temperatures

Place Temperature

Stations

Nearby Weather Stations

Station Location Temp. Windchill Dew Point Humidity Wind Precip. Elev Updated Type